Latest Weather Observations for Moorabbin Airport

IDV60801

Issued at 5:31 pm EST Sunday 19 April 2015 (issued every 30 minutes, with the page automatically refreshed every 10 minutes)

About weather observations | Map of weather stations | Latest weather observations for VIC | Other Formats
Station Details ID: 086077 Name: MOORABBIN AIRPORT Lat: -37.98 Lon: 145.10 Height: 12.1 m
Data from the previous 72 hours. | See also: Recent months at Moorabbin Airport
Date/Time
EST
Temp
°C
App
Temp
°C
Dew
Point
Rel
Hum
%
Delta-T
°C
Wind Press
QNH
hPa
Press
MSL
hPa
Rain
since 9 am
mm
Dir
 
Spd
km/h
Gust
km/h
Spd
kts
Gust
kts
19/05:30pm 12.1 5.8 3.6 56 3.7 S 26 43 14 23 1031.4 1031.3 2.8
19/05:00pm 11.6 6.4 5.5 66 2.8 SSE 22 32 12 17 1031.1 1031.0 2.8
19/04:47pm 11.7 4.3 4.9 63 3.1 SSW 33 48 18 26 1031.0 1030.9 2.8
19/04:30pm 11.7 6.2 5.8 67 2.7 SW 24 39 13 21 1030.7 1030.6 2.8
19/04:00pm 13.2 8.6 5.6 60 3.5 S 19 32 10 17 1030.2 1030.1 2.6
19/03:30pm 12.6 8.5 6.2 65 3.0 SSW 17 26 9 14 1030.1 1030.0 2.6
19/03:00pm 11.3 4.2 5.6 68 2.6 S 32 44 17 24 1030.5 1030.4 2.4
19/02:30pm 11.8 6.4 6.3 69 2.6 SSW 24 35 13 19 1029.8 1029.8 2.4
19/02:00pm 12.3 5.8 4.8 60 3.4 S 28 41 15 22 1029.4 1029.4 2.4
19/01:30pm 13.1 6.0 5.5 60 3.6 S 32 46 17 25 1029.0 1029.0 2.4
19/01:06pm 13.7 7.7 7.2 65 3.2 SSW 28 46 15 25 1028.6 1028.6 2.4
19/01:00pm 13.2 6.4 6.8 65 3.1 SSW 32 46 17 25 1028.6 1028.6 2.4
19/12:36pm 10.9 3.6 7.0 77 1.9 S 35 52 19 28 1028.6 1028.6 2.4
19/12:30pm 11.2 3.2 7.3 77 1.9 S 39 52 21 28 1028.4 1028.4 2.4
19/12:29pm 11.2 3.0 6.7 74 2.1 S 39 52 21 28 1028.3 1028.3 2.4
19/12:09pm 12.7 8.3 7.4 70 2.6 SSW 20 46 11 25 1028.3 1028.3 1.8
19/12:00pm 13.0 9.9 8.7 75 2.1 S 15 24 8 13 1028.2 1028.2 1.8
19/11:30am 12.9 7.2 6.5 65 3.1 S 26 35 14 19 1028.1 1028.1 1.6
19/11:07am 12.3 5.9 5.2 62 3.3 SSE 28 46 15 25 1027.9 1027.9 1.6
19/11:00am 13.0 8.7 7.2 68 2.8 SSE 19 28 10 15 1027.8 1027.8 1.6
19/10:30am 12.7 7.1 7.0 68 2.7 SSE 26 39 14 21 1027.4 1027.4 1.6
19/10:00am 11.3 6.0 6.8 74 2.1 S 24 41 13 22 1027.0 1027.0 1.6
19/09:45am 10.5 6.3 7.4 81 1.5 SSE 19 28 10 15 1026.8 1026.8 1.6
19/09:30am 9.7 2.8 6.4 80 1.5 SSW 32 52 17 28 1026.6 1026.6 1.6
19/09:24am 8.9 1.6 5.3 78 1.6 SSW 33 52 18 28 1026.6 1026.6 0.8
19/09:21am 11.9 5.6 7.4 74 2.2 SSW 30 50 16 27 1026.3 1026.3 0.4
19/09:16am 13.4 8.0 6.3 62 3.4 S 24 50 13 27 1026.1 1026.1 0.0
19/09:00am 13.6 9.3 7.2 65 3.1 SSE 19 26 10 14 1025.8 1025.8 10.4
19/08:30am 12.1 7.5 6.4 68 2.7 S 20 30 11 16 1025.3 1025.3 10.4
19/08:00am 11.8 5.2 6.1 68 2.7 S 30 44 16 24 1024.6 1024.6 10.4
19/07:51am 12.6 6.4 6.0 64 3.1 SSW 28 44 15 24 1024.3 1024.3 10.4
19/07:30am 10.3 7.6 7.2 81 1.5 SE 11 17 6 9 1023.9 1023.9 10.4
19/07:00am 10.8 4.9 7.3 79 1.7 SW 28 43 15 23 1023.0 1023.0 10.2
19/06:30am 11.3 7.0 7.0 75 2.0 SSW 19 26 10 14 1022.4 1022.4 9.8
19/06:00am 10.4 8.4 8.5 88 0.9 SSW 9 26 5 14 1021.9 1021.9 9.8
19/05:42am 10.1 5.9 8.2 88 0.9 SW 20 32 11 17 1021.8 1021.8 9.8
19/05:30am 9.9 5.7 8.2 89 0.8 SW 20 33 11 18 1021.8 1021.8 9.8
19/05:18am 8.7 4.0 6.2 84 1.1 SSW 20 43 11 23 1021.7 1021.7 7.8
19/05:00am 11.1 7.4 8.1 82 1.5 SSW 17 26 9 14 1020.9 1020.9 6.0
19/04:59am 11.0 7.3 8.0 82 1.5 SSW 17 26 9 14 1020.9 1020.9 6.0
19/04:40am 10.6 4.7 7.7 82 1.4 SW 28 48 15 26 1020.7 1020.7 5.8
19/04:39am 10.5 4.2 7.4 81 1.5 SW 30 48 16 26 1020.7 1020.7 5.6
19/04:30am 12.1 7.7 7.2 72 2.4 WSW 20 37 11 20 1020.3 1020.3 5.0
19/04:00am 11.8 6.9 6.7 71 2.4 WSW 22 35 12 19 1019.7 1019.7 5.0
19/03:30am 11.3 6.9 7.2 76 2.0 WSW 20 33 11 18 1019.6 1019.6 5.0
19/03:00am 11.1 6.6 6.0 71 2.4 SW 19 33 10 18 1019.2 1019.2 5.0
19/02:30am 11.8 7.6 5.7 66 2.8 SW 17 26 9 14 1019.1 1019.1 4.6
19/02:00am 12.3 8.0 7.2 71 2.5 SW 19 28 10 15 1019.0 1019.0 4.6
19/01:30am 12.4 7.6 7.3 71 2.5 WSW 22 39 12 21 1018.9 1018.9 4.6
19/01:00am 12.6 8.2 7.5 71 2.5 WSW 20 35 11 19 1018.6 1018.6 4.6
19/12:30am 12.0 9.6 9.9 87 1.1 WNW 13 20 7 11 1018.3 1018.3 4.6
19/12:00am 11.9 9.4 9.8 87 1.1 WNW 13 19 7 10 1018.0 1018.0 4.6
 
Date/Time
EST
Temp
°C
App
Temp
°C
Dew
Point
Rel
Hum
%
Delta-T
°C
Wind Press
QNH
hPa
Press
MSL
hPa
Rain
since 9 am
mm
Dir
 
Spd
km/h
Gust
km/h
Spd
kts
Gust
kts
18/11:30pm 11.9 8.7 10.1 89 0.9 WNW 17 26 9 14 1018.0 1018.0 4.6
18/11:00pm 11.7 9.4 10.4 92 0.7 NW 13 17 7 9 1017.9 1017.9 4.6
18/10:30pm 11.7 9.4 10.3 91 0.7 NW 13 22 7 12 1017.6 1017.6 4.4
18/10:00pm 11.7 10.1 10.1 90 0.8 NW 9 13 5 7 1017.5 1017.5 3.8
18/09:30pm 11.3 9.7 10.2 93 0.6 WNW 9 13 5 7 1017.2 1017.2 3.4
18/09:21pm 11.2 9.6 10.1 93 0.6 WNW 9 13 5 7 1017.2 1017.2 3.4
18/09:00pm 11.1 9.4 9.7 91 0.7 WNW 9 17 5 9 1017.0 1017.0 3.0
18/08:38pm 11.0 7.3 9.3 89 0.8 WSW 19 32 10 17 1016.8 1016.8 2.6
18/08:30pm 10.8 5.7 9.1 89 0.8 WSW 26 41 14 22 1016.7 1016.7 2.4
18/08:02pm 12.2 6.5 11.1 93 0.6 SW 32 50 17 27 1016.0 1016.0 1.0
18/08:00pm 12.1 6.1 10.8 92 0.7 SW 33 50 18 27 1015.9 1015.9 0.8
18/07:45pm 12.7 7.3 10.9 89 0.9 SW 30 48 16 26 1015.6 1015.6 0.2
18/07:44pm 12.9 7.5 11.0 88 1.0 SW 30 48 16 26 1015.6 1015.6 0.2
18/07:30pm 13.4 7.5 10.4 82 1.6 SW 32 46 17 25 1015.2 1015.2 0.0
18/07:25pm 13.3 6.8 10.5 83 1.5 SW 35 46 19 25 1015.2 1015.2 0.0
18/07:06pm 14.0 7.6 10.6 80 1.8 SW 35 50 19 27 1014.5 1014.5 0.0
18/07:00pm 14.0 7.2 10.6 80 1.8 SW 37 50 20 27 1014.4 1014.4 0.0
18/06:30pm 14.8 8.3 11.6 81 1.7 SSW 37 52 20 28 1013.1 1013.1 0.0
18/06:16pm 14.9 8.9 12.0 83 1.6 SSW 35 50 19 27 1012.7 1012.7 0.0
18/06:00pm 15.3 8.5 12.1 81 1.7 SSW 39 54 21 29 1012.0 1012.0 0.0
18/05:50pm 17.2 14.0 11.9 71 2.9 WSW 20 48 11 26 1011.9 1011.9 0.0
18/05:30pm 19.7 17.3 8.7 49 5.8 WNW 11 17 6 9 1010.9 1010.9 0.0
18/05:00pm 20.5 18.1 8.8 47 6.2 NW 11 17 6 9 1010.6 1010.6 0.0
18/04:30pm 20.0 16.3 8.0 46 6.2 NW 17 26 9 14 1010.4 1010.4 0.0
18/04:00pm 20.6 17.4 8.3 45 6.4 NW 15 20 8 11 1010.4 1010.4 0.0
18/03:30pm 20.6 16.9 7.9 44 6.6 NW 17 24 9 13 1010.7 1010.7 0.0
18/03:00pm 19.8 15.7 7.9 46 6.1 NW 19 28 10 15 1010.7 1010.7 0.0
18/02:30pm 19.7 16.0 8.1 47 6.0 NW 17 26 9 14 1010.8 1010.8 0.0
18/02:00pm 19.6 16.8 10.0 54 5.1 NNW 15 22 8 12 1011.2 1011.2 0.0
18/01:30pm 18.2 15.9 10.6 61 4.1 WNW 13 20 7 11 1011.9 1011.9 0.0
18/01:00pm 16.9 14.8 11.0 68 3.2 W 13 22 7 12 1012.1 1012.1 0.0
18/12:30pm 17.0 15.3 11.3 69 3.1 WNW 11 17 6 9 1012.6 1012.6 0.0
18/12:00pm 16.4 13.9 10.9 70 2.9 WNW 15 22 8 12 1013.2 1013.2 0.0
18/11:30am 16.1 13.0 11.7 75 2.4 W 19 28 10 15 1013.7 1013.7 0.0
18/11:00am 15.8 13.0 11.4 75 2.4 W 17 24 9 13 1013.7 1013.7 0.0
18/10:30am 15.9 13.2 11.7 76 2.3 W 17 24 9 13 1013.8 1013.8 0.0
18/10:00am 15.2 13.6 11.6 79 1.9 NW 11 19 6 10 1013.9 1013.9 0.0
18/09:30am 14.8 12.8 11.6 81 1.7 WNW 13 19 7 10 1013.8 1013.8 0.0
18/09:00am 14.4 13.2 11.7 84 1.4 W 9 13 5 7 1014.0 1014.0 5.0
18/08:30am 14.2 13.5 11.9 86 1.2 WNW 7 11 4 6 1013.9 1013.9 5.0
18/08:00am 13.9 12.8 11.9 88 1.1 W 9 13 5 7 1013.7 1013.7 5.0
18/07:30am 13.9 13.1 12.8 93 0.6 WNW 9 13 5 7 1013.5 1013.5 5.0
18/07:00am 13.9 13.5 13.1 95 0.4 NW 7 11 4 6 1013.0 1013.0 5.0
18/06:30am 13.9 13.6 13.3 96 0.3 WNW 7 11 4 6 1012.7 1012.7 5.0
18/06:00am 13.9 13.8 13.4 97 0.3 WNW 6 7 3 4 1012.7 1012.7 5.0
18/05:30am 13.8 13.8 13.5 98 0.2 W 6 7 3 4 1012.3 1012.3 5.0
18/05:09am 13.9 13.9 13.7 99 0.1 W 6 7 3 4 1012.5 1012.5 5.0
18/05:00am 13.9 13.9 13.7 99 0.1 WNW 6 7 3 4 1012.2 1012.2 5.0
18/04:38am 13.9 13.9 13.7 99 0.1 WNW 6 7 3 4 1012.6 1012.6 5.0
18/04:37am 13.9 13.9 13.7 99 0.1 WNW 6 9 3 5 1012.6 1012.6 5.0
18/04:30am 13.9 13.7 13.7 99 0.1 WNW 7 9 4 5 1012.5 1012.5 5.0
18/04:13am 13.9 13.9 13.7 99 0.1 NW 6 7 3 4 1012.5 1012.5 5.0
18/04:06am 13.9 13.9 13.7 99 0.1 WNW 6 7 3 4 1012.5 1012.5 5.0
18/04:00am 13.8 13.8 13.6 99 0.1 W 6 7 3 4 1012.3 1012.3 5.0
18/03:57am 13.8 13.8 13.6 99 0.1 W 6 9 3 5 1012.3 1012.3 5.0
18/03:30am 14.1 14.2 13.9 99 0.1 W 6 9 3 5 1012.4 1012.4 4.8
18/03:01am 13.9 13.7 13.6 98 0.2 N 7 7 4 4 1012.5 1012.5 4.6
18/03:00am 13.9 13.7 13.6 98 0.2 N 7 7 4 4 1012.5 1012.5 4.6
18/02:30am 13.8 14.8 13.3 97 0.3 CALM 0 0 0 0 1012.7 1012.7 4.6
18/02:25am 13.8 14.8 13.3 97 0.3 CALM 0 0 0 0 1012.7 1012.7 4.6
18/02:20am 13.7 14.7 13.2 97 0.3 CALM 0 0 0 0 1012.7 1012.7 4.6
18/02:00am 13.7 14.7 13.2 97 0.3 CALM 0 0 0 0 1012.9 1012.9 4.6
18/01:50am 13.6 14.6 13.1 97 0.3 CALM 0 0 0 0 1012.9 1012.9 4.6
18/01:30am 13.5 14.1 13.0 97 0.3 SSE 2 6 1 3 1013.1 1013.1 4.4
18/01:09am 13.6 13.4 13.0 96 0.3 ESE 6 7 3 4 1013.3 1013.3 4.4
18/01:00am 13.6 13.8 13.0 96 0.3 ESE 4 7 2 4 1013.4 1013.4 4.4
18/12:36am 13.6 14.5 12.8 95 0.4 CALM 0 0 0 0 1013.7 1013.7 4.2
18/12:30am 13.6 14.5 12.8 95 0.4 CALM 0 0 0 0 1013.9 1013.9 4.2
18/12:16am 13.6 14.5 12.8 95 0.4 CALM 0 2 0 1 1013.9 1013.9 4.0
18/12:13am 13.5 14.3 12.7 95 0.4 CALM 0 4 0 2 1013.9 1013.9 4.0
18/12:09am 13.5 13.9 12.6 94 0.5 S 2 6 1 3 1013.9 1013.9 4.0
18/12:00am 13.4 13.0 12.5 94 0.5 S 6 7 3 4 1014.0 1014.0 4.0
 
Date/Time
EST
Temp
°C
App
Temp
°C
Dew
Point
Rel
Hum
%
Delta-T
°C
Wind Press
QNH
hPa
Press
MSL
hPa
Rain
since 9 am
mm
Dir
 
Spd
km/h
Gust
km/h
Spd
kts
Gust
kts
17/11:36pm 13.6 14.1 12.7 94 0.5 SE 2 6 1 3 1014.4 1014.4 2.8
17/11:30pm 13.7 13.8 12.8 94 0.5 ESE 4 7 2 4 1014.4 1014.4 2.8
17/11:23pm 13.7 13.4 12.6 93 0.6 ESE 6 7 3 4 1014.4 1014.4 2.6
17/11:12pm 13.8 13.5 12.7 93 0.6 ESE 6 7 3 4 1014.5 1014.5 2.6
17/11:00pm 13.9 13.4 12.6 92 0.7 ESE 7 7 4 4 1014.6 1014.6 2.4
17/10:30pm 13.9 14.7 12.5 91 0.8 CALM 0 0 0 0 1015.1 1015.1 2.4
17/10:00pm 13.8 14.6 12.4 91 0.8 CALM 0 0 0 0 1015.5 1015.5 2.2
17/09:30pm 13.6 13.1 12.2 91 0.8 N 6 7 3 4 1015.6 1015.6 2.2
17/09:29pm 13.7 13.3 12.3 91 0.8 NNE 6 7 3 4 1015.6 1015.6 2.2
17/09:07pm 13.9 14.2 12.3 90 0.9 NNE 2 6 1 3 1015.8 1015.8 2.2
17/09:00pm 13.9 13.8 12.1 89 1.0 NE 4 6 2 3 1015.7 1015.7 2.2
17/08:30pm 13.7 13.2 11.9 89 1.0 ENE 6 7 3 4 1016.0 1016.0 2.2
17/08:00pm 13.7 12.7 12.3 91 0.8 ENE 9 11 5 6 1016.2 1016.2 2.2
17/07:30pm 13.8 13.2 12.2 90 0.9 ENE 7 9 4 5 1016.6 1016.6 2.2
17/07:00pm 13.5 12.4 12.1 91 0.8 ENE 9 13 5 7 1016.7 1016.7 2.2
17/06:30pm 13.7 13.2 11.9 89 1.0 ENE 6 11 3 6 1016.8 1016.8 2.2
17/06:00pm 13.7 13.1 11.7 88 1.1 SE 6 7 3 4 1016.8 1016.8 2.2
17/05:30pm 13.7 13.1 11.7 88 1.1 SSW 6 9 3 5 1017.3 1017.3 2.2
17/05:00pm 14.0 13.2 11.7 86 1.2 W 7 11 4 6 1017.6 1017.6 2.0
17/04:30pm 14.1 13.1 11.1 82 1.6 ENE 7 9 4 5 1017.2 1017.2 1.6
17/04:18pm 14.7 14.1 11.7 82 1.6 ENE 6 9 3 5 1017.3 1017.3 1.6
17/04:00pm 14.6 13.4 11.6 82 1.6 N 9 11 5 6 1017.9 1017.9 1.2
17/03:58pm 14.4 13.0 11.0 80 1.8 N 9 11 5 6 1017.9 1017.9 1.0
17/03:30pm 15.1 13.1 10.3 73 2.5 NNW 11 15 6 8 1018.2 1018.2 0.2
17/03:00pm 16.2 13.6 9.4 64 3.5 NW 13 17 7 9 1018.3 1018.3 0.0
17/02:30pm 17.3 14.2 9.0 58 4.3 NNW 15 19 8 10 1018.4 1018.4 0.0
17/02:00pm 17.3 16.0 9.2 59 4.2 NW 6 7 3 4 1018.5 1018.5 0.0
17/01:30pm 17.1 15.7 9.0 59 4.2 N 6 11 3 6 1018.7 1018.7 0.0
17/01:00pm 16.8 15.4 8.8 59 4.1 E 6 11 3 6 1019.2 1019.2 0.0
17/12:30pm 16.7 14.6 8.4 58 4.2 E 9 13 5 7 1020.0 1020.0 0.0
17/12:00pm 16.7 14.4 9.1 61 3.9 ESE 11 32 6 17 1020.9 1020.9 0.0
17/11:30am 15.8 12.6 8.5 62 3.7 E 15 20 8 11 1021.6 1021.6 0.0
17/11:00am 15.4 11.5 8.6 64 3.4 E 19 24 10 13 1022.3 1022.3 0.0
17/10:30am 14.7 10.7 8.2 65 3.3 ESE 19 28 10 15 1023.0 1023.0 0.0
17/10:00am 14.1 11.3 8.5 69 2.8 ESE 13 20 7 11 1023.6 1023.6 0.0
17/09:30am 12.9 12.0 9.2 78 1.9 ESE 4 7 2 4 1024.1 1024.1 0.0
17/09:00am 11.8 11.8 9.7 87 1.1 CALM 0 0 0 0 1024.6 1024.6 0.0
17/08:30am 10.5 10.3 8.9 90 0.8 CALM 0 0 0 0 1024.5 1024.5 0.0
17/08:00am 9.4 8.9 8.0 91 0.7 CALM 0 0 0 0 1024.2 1024.2 0.0
17/07:30am 8.9 7.2 7.7 92 0.6 E 6 7 3 4 1023.9 1023.9 0.0
17/07:00am 8.2 6.1 6.8 91 0.6 ESE 7 7 4 4 1023.6 1023.6 0.0
17/06:30am 8.4 6.4 6.9 90 0.7 ESE 7 7 4 4 1023.5 1023.5 0.0
17/06:00am 8.9 8.3 7.2 89 0.8 CALM 0 0 0 0 1023.5 1023.5 0.0
17/05:30am 9.3 8.7 7.3 87 0.9 CALM 0 0 0 0 1023.4 1023.4 0.0
17/05:00am 9.7 9.1 7.6 87 1.0 CALM 0 0 0 0 1023.4 1023.4 0.0
17/04:30am 9.6 9.0 7.5 87 1.0 CALM 0 0 0 0 1023.6 1023.6 0.0
17/04:00am 9.7 9.1 7.5 86 1.0 CALM 0 0 0 0 1022.9 1022.9 0.0
17/03:30am 10.1 9.6 7.7 85 1.2 CALM 0 0 0 0 1023.0 1023.0 0.0
17/03:00am 10.9 9.3 8.0 82 1.4 N 6 7 3 4 1023.2 1023.2 0.0
17/02:30am 10.6 8.4 7.8 83 1.4 NNE 9 9 5 5 1023.7 1023.7 0.0
17/02:00am 11.1 10.7 8.3 83 1.4 CALM 0 0 0 0 1024.4 1024.4 0.0
17/01:30am 11.1 10.7 8.3 83 1.4 CALM 0 0 0 0 1024.9 1024.9 0.0
17/01:00am 11.2 10.8 8.1 81 1.5 CALM 0 0 0 0 1025.1 1025.1 0.0
17/12:30am 11.3 10.8 7.8 79 1.7 CALM 0 0 0 0 1025.6 1025.6 0.0
17/12:00am 11.9 10.7 8.2 78 1.8 N 4 7 2 4 1025.9 1025.9 0.0
 
Date/Time
EST
Temp
°C
App
Temp
°C
Dew
Point
Rel
Hum
%
Delta-T
°C
Wind Press
QNH
hPa
Press
MSL
hPa
Rain
since 9 am
mm
Dir
 
Spd
km/h
Gust
km/h
Spd
kts
Gust
kts
16/11:30pm 11.8 9.9 7.7 76 2.0 NE 7 7 4 4 1026.3 1026.3 0.0
16/11:00pm 12.2 10.3 7.5 73 2.3 ESE 7 9 4 5 1026.3 1026.3 0.0
16/10:30pm 12.7 10.5 8.0 73 2.3 SE 9 11 5 6 1026.4 1026.4 0.0
16/10:00pm 12.8 10.6 7.9 72 2.4 SE 9 11 5 6 1026.4 1026.4 0.0
16/09:30pm 13.1 10.9 8.0 71 2.5 SSE 9 13 5 7 1026.2 1026.2 0.0
16/09:00pm 13.0 10.8 7.7 70 2.6 SSE 9 11 5 6 1026.3 1026.3 0.0
16/08:30pm 13.0 11.2 7.9 71 2.5 SSE 7 9 4 5 1026.4 1026.4 0.0
16/08:00pm 13.2 11.5 7.6 69 2.7 SSE 6 7 3 4 1026.3 1026.3 0.0
16/07:30pm 13.4 11.5 7.4 67 2.9 SE 7 9 4 5 1026.0 1026.0 0.0
16/07:00pm 13.6 10.9 7.4 66 3.0 ESE 11 13 6 7 1025.5 1025.5 0.0
16/06:30pm 14.6 11.7 8.1 65 3.2 SSE 13 19 7 10 1025.5 1025.5 0.0
16/06:00pm 14.6 10.4 7.6 63 3.4 SSE 19 24 10 13 1025.4 1025.4 0.0

Other Formats:

Comma delimited format used in spreadsheet applications
http://www.bom.gov.au/fwo/IDV60801/IDV60801.94870.axf

JavaScript Object Notation format (JSON) in row-major order
http://www.bom.gov.au/fwo/IDV60801/IDV60801.94870.json